createdAt,value
2019-05-05T00:08:40.854Z,92.03
2019-05-05T00:11:27.324Z,94.34
2019-05-05T00:14:15.201Z,94.66
2019-05-05T00:17:02.497Z,93.71
2019-05-05T00:19:33.107Z,93.58
2019-05-05T00:21:58.126Z,94.45
2019-05-05T00:24:25.228Z,95.36
2019-05-05T00:26:52.429Z,95.82
2019-05-05T00:29:19.557Z,95.57
2019-05-05T00:31:47.282Z,96.05
2019-05-05T00:34:15.423Z,96.42
2019-05-05T00:36:44.599Z,96.67
2019-05-05T00:39:12.412Z,96.47
2019-05-05T00:41:39.232Z,96.90
2019-05-05T00:44:05.967Z,97.30
2019-05-05T00:46:52.459Z,97.05
2019-05-05T00:49:19.342Z,96.74
2019-05-05T00:51:46.211Z,96.52
2019-05-05T00:54:14.755Z,97.88
2019-05-05T00:56:41.788Z,98.15
2019-05-05T01:02:17.617Z,99.14
2019-05-05T01:05:04.606Z,99.13
2019-05-05T01:07:31.748Z,98.45
2019-05-05T01:09:58.898Z,98.29
2019-05-05T01:12:26.254Z,98.76
2019-05-05T01:15:12.601Z,99.22
2019-05-05T01:17:39.281Z,99.08
2019-05-05T01:20:06.956Z,98.93
2019-05-05T01:22:35.045Z,99.06
2019-05-05T01:25:02.162Z,99.39
2019-05-05T01:27:29.708Z,99.61
2019-05-05T01:29:56.837Z,99.81
2019-05-05T01:35:15.459Z,99.51
2019-05-05T01:40:54.756Z,99.29
2019-05-05T01:43:25.131Z,99.07
2019-05-05T01:45:54.561Z,99.22
2019-05-05T01:48:21.219Z,99.33
2019-05-05T01:50:47.956Z,99.53
2019-05-05T01:53:15.291Z,99.94
2019-05-05T01:55:45.165Z,100.00
2019-05-05T01:58:54.741Z,99.70
2019-05-05T02:01:24.669Z,99.78
2019-05-05T02:03:52.038Z,100.00
2019-05-05T02:06:19.153Z,100.00
2019-05-05T02:08:46.308Z,100.00
2019-05-05T02:11:15.494Z,100.00
2019-05-05T02:13:42.603Z,100.00
2019-05-05T02:16:09.687Z,100.00
2019-05-05T02:18:55.986Z,98.96
2019-05-05T02:21:24.307Z,98.96
2019-05-05T02:23:52.228Z,98.11
2019-05-05T02:26:19.736Z,97.56
2019-05-05T02:29:06.646Z,97.89
2019-05-05T02:31:55.240Z,97.89
2019-05-05T02:34:25.547Z,99.30
2019-05-05T02:36:51.588Z,100.00
2019-05-05T02:39:18.686Z,100.00
2019-05-05T02:42:05.922Z,100.00
2019-05-05T02:44:47.573Z,100.00
2019-05-05T02:47:55.646Z,100.00
2019-05-05T02:51:06.732Z,100.00
2019-05-05T02:53:58.895Z,100.00
2019-05-05T02:57:06.786Z,100.00
2019-05-05T02:59:54.064Z,99.45
2019-05-05T03:02:23.760Z,99.51
2019-05-05T03:05:14.164Z,100.00
2019-05-05T03:07:41.047Z,100.00
2019-05-05T03:10:08.498Z,100.00
2019-05-05T03:13:16.405Z,100.00
2019-05-05T03:16:34.180Z,100.00
2019-05-05T03:19:03.432Z,100.00
2019-05-05T03:22:11.146Z,100.00
2019-05-05T03:25:19.087Z,100.00
2019-05-05T03:27:46.295Z,100.00
2019-05-05T03:30:15.506Z,100.00
2019-05-05T03:32:45.470Z,100.00
2019-05-05T03:35:54.016Z,100.00
2019-05-05T03:38:21.519Z,100.00
2019-05-05T03:43:27.891Z,100.00
2019-05-05T03:46:14.332Z,100.00
2019-05-05T03:48:41.585Z,100.00
2019-05-05T03:51:18.251Z,100.00
2019-05-05T03:53:37.655Z,100.00
2019-05-05T03:56:04.785Z,100.00
2019-05-05T03:58:54.272Z,100.00
2019-05-05T04:02:14.151Z,100.00
2019-05-05T04:07:43.990Z,100.00
2019-05-05T04:10:54.615Z,100.00
2019-05-05T04:14:03.661Z,100.00
2019-05-05T04:22:04.263Z,100.00
2019-05-05T04:24:54.109Z,100.00
2019-05-05T04:27:20.985Z,100.00
2019-05-05T04:29:48.689Z,100.00
2019-05-05T04:32:15.467Z,100.00
2019-05-05T04:34:43.893Z,100.00
2019-05-05T04:37:11.289Z,100.00
2019-05-05T04:40:00.109Z,100.00
2019-05-05T04:42:27.191Z,100.00
2019-05-05T04:44:54.309Z,100.00
2019-05-05T04:52:43.458Z,100.00
2019-05-05T04:55:11.072Z,100.00
2019-05-05T04:57:38.224Z,100.00
2019-05-05T05:00:05.415Z,100.00
2019-05-05T05:02:53.937Z,100.00
2019-05-05T05:08:13.910Z,100.00
2019-05-05T05:10:43.780Z,99.80
2019-05-05T05:13:13.837Z,99.77
2019-05-05T05:15:44.719Z,99.90
2019-05-05T05:20:49.567Z,98.95
2019-05-05T05:23:16.804Z,98.50
2019-05-05T05:25:44.378Z,97.90
2019-05-05T05:28:31.663Z,97.53
2019-05-05T05:30:58.912Z,97.49
2019-05-05T05:33:47.292Z,97.35
2019-05-05T05:36:15.256Z,96.99
2019-05-05T05:41:40.178Z,96.09
2019-05-05T05:44:28.644Z,96.35
2019-05-05T05:49:58.995Z,95.99
2019-05-05T05:52:46.754Z,95.53
2019-05-05T05:55:14.538Z,95.13
2019-05-05T05:57:44.991Z,94.14
2019-05-05T06:00:11.960Z,92.87
2019-05-05T06:02:39.746Z,91.80
2019-05-05T06:05:08.068Z,90.90
2019-05-05T06:07:34.791Z,90.08
2019-05-05T06:10:03.780Z,90.62
2019-05-05T06:12:30.794Z,88.64
2019-05-05T06:14:58.134Z,88.58
2019-05-05T06:17:24.965Z,87.75
2019-05-05T06:19:53.691Z,88.11
2019-05-05T06:22:29.453Z,86.78
2019-05-05T06:24:51.137Z,85.80
2019-05-05T06:27:37.402Z,84.44
2019-05-05T06:30:04.821Z,83.72
2019-05-05T06:32:31.538Z,83.41
2019-05-05T06:34:58.354Z,79.83
2019-05-05T06:37:25.091Z,80.53
2019-05-05T06:42:46.738Z,77.42
2019-05-05T06:48:08.600Z,76.63
2019-05-05T06:50:36.182Z,73.56
2019-05-05T06:53:04.241Z,73.12
2019-05-05T06:55:33.627Z,72.01
2019-05-05T06:58:01.016Z,72.90
2019-05-05T07:00:28.753Z,71.52
2019-05-05T07:06:14.652Z,69.27
2019-05-05T07:08:43.956Z,69.74
2019-05-05T07:11:11.562Z,68.12
2019-05-05T07:13:38.959Z,66.10
2019-05-05T07:16:06.112Z,65.74
2019-05-05T07:18:34.139Z,64.44
2019-05-05T07:21:23.643Z,64.87
2019-05-05T07:23:50.982Z,63.63
2019-05-05T07:26:18.108Z,62.04
2019-05-05T07:28:45.164Z,60.04
2019-05-05T07:31:14.206Z,57.59
2019-05-05T07:33:41.246Z,59.06
2019-05-05T07:36:28.152Z,57.31
2019-05-05T07:38:55.253Z,56.78
2019-05-05T07:41:23.479Z,53.17
2019-05-05T07:43:51.667Z,53.32
2019-05-05T07:46:18.733Z,53.01
2019-05-05T07:48:45.958Z,51.71
2019-05-05T07:51:14.103Z,50.01
2019-05-05T07:53:44.283Z,49.36
2019-05-05T07:56:11.665Z,51.27
2019-05-05T07:58:38.669Z,49.75
2019-05-05T08:01:25.253Z,47.52
2019-05-05T08:03:53.844Z,49.27
2019-05-05T08:06:23.683Z,48.62
2019-05-05T08:08:50.798Z,48.14
2019-05-05T08:11:18.143Z,48.12
2019-05-05T08:13:45.242Z,46.31
2019-05-05T08:19:39.414Z,46.68
2019-05-05T08:22:06.818Z,44.42
2019-05-05T08:24:54.497Z,45.09
2019-05-05T08:32:43.718Z,46.47
2019-05-05T08:35:11.135Z,44.76
2019-05-05T08:37:38.622Z,40.93
2019-05-05T08:40:06.080Z,41.91
2019-05-05T08:42:33.891Z,41.17
2019-05-05T08:45:04.457Z,44.09
2019-05-05T08:47:31.726Z,40.14
2019-05-05T08:49:58.776Z,38.27
2019-05-05T08:52:26.325Z,38.52
2019-05-05T08:54:54.262Z,40.20
2019-05-05T08:57:23.626Z,40.58
2019-05-05T08:59:51.282Z,43.55
2019-05-05T09:02:18.402Z,37.81
2019-05-05T09:04:45.504Z,36.23
2019-05-05T09:07:13.738Z,35.96
2019-05-05T09:09:41.672Z,35.72
2019-05-05T09:12:08.811Z,36.39
2019-05-05T09:14:35.865Z,36.06
2019-05-05T09:17:04.497Z,36.45
2019-05-05T09:19:34.311Z,36.54
2019-05-05T09:22:00.997Z,33.96
2019-05-05T09:24:47.925Z,32.89
2019-05-05T09:30:10.088Z,34.57
2019-05-05T09:32:37.181Z,33.36
2019-05-05T09:35:04.916Z,33.55
2019-05-05T09:37:33.980Z,32.50
2019-05-05T09:40:01.342Z,34.35
2019-05-05T09:42:28.500Z,37.31
2019-05-05T09:44:55.638Z,35.18
2019-05-05T09:47:24.054Z,37.86
2019-05-05T09:49:51.766Z,34.54
2019-05-05T09:52:18.879Z,33.20
2019-05-05T09:54:46.200Z,32.24
2019-05-05T09:57:14.485Z,31.34
2019-05-05T09:59:44.184Z,32.98
2019-05-05T10:04:47.004Z,31.26
2019-05-05T10:07:14.081Z,31.91
2019-05-05T10:09:41.247Z,33.33
2019-05-05T10:12:08.337Z,34.99
2019-05-05T10:14:35.467Z,32.29
2019-05-05T10:17:04.652Z,32.23
2019-05-05T10:19:31.552Z,34.39
2019-05-05T10:21:58.607Z,33.73
2019-05-05T10:27:04.945Z,32.33
2019-05-05T10:29:33.321Z,30.37
2019-05-05T10:32:00.395Z,29.93
2019-05-05T10:34:27.509Z,31.33
2019-05-05T10:36:54.645Z,26.90
2019-05-05T10:39:41.361Z,25.21
2019-05-05T10:42:08.429Z,26.97
2019-05-05T10:44:35.580Z,29.01
2019-05-05T10:47:04.606Z,30.09
2019-05-05T10:49:33.592Z,30.37
2019-05-05T10:52:00.475Z,31.58
2019-05-05T10:54:40.710Z,32.47
2019-05-05T10:56:56.308Z,32.52
2019-05-05T10:59:23.868Z,29.09
2019-05-05T11:01:53.876Z,26.63
2019-05-05T11:04:24.198Z,26.38
2019-05-05T11:06:51.036Z,27.26
2019-05-05T11:09:59.033Z,25.60
2019-05-05T11:12:26.143Z,26.14
2019-05-05T11:14:54.505Z,24.23
2019-05-05T11:17:24.624Z,25.53
2019-05-05T11:19:51.179Z,24.36
2019-05-05T11:22:17.957Z,24.53
2019-05-05T11:24:57.264Z,24.31
2019-05-05T11:27:14.026Z,27.05
2019-05-05T11:30:00.719Z,23.98
2019-05-05T11:32:47.337Z,22.86
2019-05-05T11:35:14.074Z,21.95
2019-05-05T11:37:40.851Z,23.33
2019-05-05T11:40:07.978Z,24.71
2019-05-05T11:42:35.076Z,26.02
2019-05-05T11:45:04.087Z,23.39
2019-05-05T11:47:31.314Z,22.39
2019-05-05T11:49:58.466Z,21.85
2019-05-05T11:52:25.557Z,20.77
2019-05-05T11:54:54.389Z,19.16
2019-05-05T11:59:54.958Z,20.74
2019-05-05T12:02:24.307Z,22.34
2019-05-05T12:04:51.098Z,23.98
2019-05-05T12:07:18.752Z,26.36
2019-05-05T12:12:38.107Z,26.06
2019-05-05T12:15:05.601Z,28.76
2019-05-05T12:17:35.978Z,25.83
2019-05-05T12:20:04.816Z,25.78
2019-05-05T12:22:34.079Z,25.92
2019-05-05T12:28:10.060Z,26.24
2019-05-05T12:30:37.168Z,28.23
2019-05-05T12:33:04.840Z,27.91
2019-05-05T12:35:34.065Z,27.61
2019-05-05T12:38:02.821Z,26.73
2019-05-05T12:40:30.081Z,26.12
2019-05-05T12:42:57.224Z,28.69
2019-05-05T12:48:34.473Z,27.34
2019-05-05T12:51:04.214Z,24.86
2019-05-05T12:53:31.479Z,24.98
2019-05-05T12:55:58.645Z,26.51
2019-05-05T12:58:25.784Z,26.06
2019-05-05T13:03:37.066Z,28.27
2019-05-05T13:06:04.385Z,28.09
2019-05-05T13:08:31.493Z,28.57
2019-05-05T13:10:58.616Z,28.77
2019-05-05T13:13:26.034Z,27.75
2019-05-05T13:15:53.722Z,28.04
2019-05-05T13:18:24.467Z,28.79
2019-05-05T13:21:11.223Z,28.56
2019-05-05T13:23:57.971Z,29.12
2019-05-05T13:26:44.711Z,28.50
2019-05-05T13:29:13.800Z,28.27
2019-05-05T13:31:40.846Z,28.22
2019-05-05T13:34:07.922Z,29.20
2019-05-05T13:36:35.839Z,29.12
2019-05-05T13:41:53.978Z,26.59
2019-05-05T13:44:42.015Z,28.28
2019-05-05T13:47:09.359Z,28.05
2019-05-05T13:52:27.160Z,29.61
2019-05-05T13:54:54.445Z,27.67
2019-05-05T13:57:21.491Z,27.87
2019-05-05T13:59:48.714Z,28.78
2019-05-05T14:02:15.955Z,26.39
2019-05-05T14:04:43.915Z,29.04
2019-05-05T14:07:12.912Z,28.99
2019-05-05T14:09:39.984Z,29.57
2019-05-05T14:12:07.435Z,30.32
2019-05-05T14:14:34.787Z,31.96
2019-05-05T14:17:03.946Z,30.73
2019-05-05T14:19:30.946Z,31.41
2019-05-05T14:21:58.090Z,30.18
2019-05-05T14:24:44.927Z,30.11
2019-05-05T14:27:14.365Z,30.62
2019-05-05T14:30:01.188Z,33.37
2019-05-05T14:32:31.490Z,29.32
2019-05-05T14:38:04.016Z,28.79
2019-05-05T14:40:33.772Z,26.40
2019-05-05T14:43:00.827Z,27.82
2019-05-05T14:45:27.884Z,27.86
2019-05-05T14:47:54.953Z,28.76
2019-05-05T14:50:24.240Z,27.18
2019-05-05T14:52:51.152Z,28.74
2019-05-05T14:55:58.975Z,28.39
2019-05-05T14:58:25.725Z,29.50
2019-05-05T15:01:07.392Z,28.36
2019-05-05T15:03:34.269Z,32.01
2019-05-05T15:06:21.056Z,28.86
2019-05-05T15:09:07.826Z,30.38
2019-05-05T15:11:55.253Z,30.56
2019-05-05T15:14:24.272Z,29.61
2019-05-05T15:16:51.713Z,29.91
2019-05-05T15:19:18.860Z,31.78
2019-05-05T15:21:48.752Z,33.20
2019-05-05T15:24:34.307Z,31.30
2019-05-05T15:27:01.075Z,28.68
2019-05-05T15:29:28.033Z,28.07
2019-05-05T15:31:55.042Z,26.36
2019-05-05T15:34:23.901Z,28.26
2019-05-05T15:36:50.991Z,25.12
2019-05-05T15:39:17.831Z,25.28
2019-05-05T15:41:44.590Z,25.78
2019-05-05T15:44:13.303Z,27.35
2019-05-05T15:46:40.475Z,27.54
2019-05-05T15:49:07.554Z,29.07
2019-05-05T15:51:34.674Z,28.93
2019-05-05T15:54:03.688Z,28.52
2019-05-05T15:56:30.529Z,28.71
2019-05-05T15:58:57.237Z,29.30
2019-05-05T16:01:36.993Z,30.32
2019-05-05T16:04:04.265Z,30.16
2019-05-05T16:06:31.393Z,31.19
2019-05-05T16:08:59.501Z,32.89
2019-05-05T16:11:27.018Z,32.19
2019-05-05T16:13:55.767Z,32.62
2019-05-05T16:16:42.495Z,31.83
2019-05-05T16:19:16.345Z,31.59
2019-05-05T16:22:03.910Z,32.16
2019-05-05T16:24:36.555Z,32.63
2019-05-05T16:27:08.201Z,31.63
2019-05-05T16:29:33.600Z,32.12
2019-05-05T16:32:01.109Z,32.03
2019-05-05T16:34:28.026Z,32.12
2019-05-05T16:36:56.976Z,31.37
2019-05-05T16:39:25.640Z,31.75
2019-05-05T16:41:53.825Z,32.38
2019-05-05T16:44:23.415Z,31.57
2019-05-05T16:46:51.356Z,32.07
2019-05-05T16:49:18.546Z,32.28
2019-05-05T16:52:05.154Z,33.96
2019-05-05T16:57:11.720Z,32.30
2019-05-05T16:59:38.784Z,32.52
2019-05-05T17:02:06.365Z,34.56
2019-05-05T17:04:35.531Z,32.26
2019-05-05T17:07:04.032Z,31.37
2019-05-05T17:09:31.565Z,32.22
2019-05-05T17:12:18.311Z,32.17
2019-05-05T17:18:32.602Z,33.10
2019-05-05T17:20:55.414Z,33.16
2019-05-05T17:23:23.744Z,33.39
2019-05-05T17:25:51.299Z,33.37
2019-05-05T17:28:18.667Z,33.44
2019-05-05T17:30:45.761Z,33.40
2019-05-05T17:33:14.365Z,34.30
2019-05-05T17:35:41.665Z,34.55
2019-05-05T17:41:19.716Z,35.09
2019-05-05T17:44:06.693Z,35.80
2019-05-05T17:46:53.931Z,36.14
2019-05-05T17:50:00.041Z,36.34
2019-05-05T17:52:46.694Z,37.07
2019-05-05T17:55:33.917Z,36.92
2019-05-05T17:58:02.476Z,37.68
2019-05-05T18:03:34.086Z,45.91
2019-05-05T18:06:34.371Z,47.83
2019-05-05T18:09:23.510Z,49.24
2019-05-05T18:20:17.014Z,53.92
2019-05-05T18:22:44.979Z,54.32
2019-05-05T18:25:14.234Z,53.09
2019-05-05T18:27:42.250Z,53.40
2019-05-05T18:30:09.403Z,53.29
2019-05-05T18:32:40.050Z,56.75
2019-05-05T18:35:07.229Z,54.66
2019-05-05T18:37:35.232Z,57.56
2019-05-05T18:40:04.116Z,55.99
2019-05-05T18:42:31.420Z,57.46
2019-05-05T18:45:05.838Z,56.77
2019-05-05T18:47:34.108Z,57.73
2019-05-05T18:50:04.427Z,57.93
2019-05-05T18:52:34.619Z,59.62
2019-05-05T18:55:01.930Z,61.10
2019-05-05T18:57:29.733Z,61.83
2019-05-05T18:59:56.877Z,63.39
2019-05-05T19:02:40.535Z,64.89
2019-05-05T19:05:40.470Z,63.19
2019-05-05T19:08:11.032Z,63.09
2019-05-05T19:10:38.746Z,61.95
2019-05-05T19:13:06.628Z,63.06
2019-05-05T19:15:35.023Z,63.43
2019-05-05T19:18:04.068Z,61.72
2019-05-05T19:20:45.125Z,60.91
2019-05-05T19:23:14.690Z,64.34
2019-05-05T19:25:45.204Z,67.36
2019-05-05T19:28:14.226Z,67.86
2019-05-05T19:30:44.005Z,68.55
2019-05-05T19:33:15.545Z,67.47
2019-05-05T19:35:45.054Z,63.79
2019-05-05T19:38:15.583Z,65.84
2019-05-05T19:40:41.934Z,67.10
2019-05-05T19:43:09.501Z,68.39
2019-05-05T19:45:37.407Z,70.13
2019-05-05T19:48:06.042Z,70.10
2019-05-05T19:50:54.255Z,71.65
2019-05-05T19:53:25.283Z,71.72
2019-05-05T19:55:54.666Z,67.93
2019-05-05T19:58:22.244Z,70.07
2019-05-05T20:00:49.635Z,69.41
2019-05-05T20:03:20.300Z,71.77
2019-05-05T20:05:48.479Z,73.57
2019-05-05T20:08:15.618Z,74.81
2019-05-05T20:11:54.522Z,74.73
2019-05-05T20:14:29.019Z,73.41
2019-05-05T20:17:05.136Z,68.62
2019-05-05T20:19:35.101Z,66.54
2019-05-05T20:22:02.199Z,67.06
2019-05-05T20:24:29.314Z,69.87
2019-05-05T20:26:56.491Z,67.57
2019-05-05T20:29:24.041Z,65.96
2019-05-05T20:31:51.220Z,66.32
2019-05-05T20:34:26.014Z,70.58
2019-05-05T20:37:09.929Z,72.79
2019-05-05T20:39:37.334Z,68.96
2019-05-05T20:42:04.532Z,71.20
2019-05-05T20:44:31.650Z,73.80
2019-05-05T20:47:01.448Z,70.09
2019-05-05T20:49:28.578Z,69.09
2019-05-05T20:51:55.953Z,72.73
2019-05-05T20:54:23.756Z,75.06
2019-05-05T20:56:51.029Z,74.47
2019-05-05T20:59:27.574Z,73.98
2019-05-05T21:01:47.171Z,73.38
2019-05-05T21:04:15.281Z,72.42
2019-05-05T21:07:26.272Z,72.01
2019-05-05T21:09:51.994Z,70.09
2019-05-05T21:12:19.114Z,75.15
2019-05-05T21:14:46.696Z,76.71
2019-05-05T21:17:14.016Z,75.70
2019-05-05T21:19:41.194Z,69.61
2019-05-05T21:22:37.439Z,71.91
2019-05-05T21:25:05.017Z,76.31
2019-05-05T21:27:34.077Z,77.36
2019-05-05T21:30:03.892Z,77.50
2019-05-05T21:32:30.829Z,78.82
2019-05-05T21:34:58.038Z,78.80
2019-05-05T21:37:25.245Z,78.78
2019-05-05T21:39:54.631Z,78.93
2019-05-05T21:42:24.100Z,75.80
2019-05-05T21:44:53.773Z,67.37
2019-05-05T21:47:20.353Z,75.57
2019-05-05T21:49:47.523Z,70.46
2019-05-05T21:52:28.842Z,71.60
2019-05-05T21:55:04.218Z,73.62
2019-05-05T21:57:56.084Z,76.35
2019-05-05T22:00:44.135Z,76.80
2019-05-05T22:03:13.996Z,77.93
2019-05-05T22:05:41.258Z,75.60
2019-05-05T22:08:08.428Z,75.57
2019-05-05T22:10:36.005Z,76.02
2019-05-05T22:13:04.827Z,78.20
2019-05-05T22:15:33.646Z,79.02
2019-05-05T22:18:03.581Z,77.84
2019-05-05T22:20:36.852Z,77.39
2019-05-05T22:23:04.067Z,78.20
2019-05-05T22:25:31.186Z,70.52
2019-05-05T22:27:58.384Z,78.22
2019-05-05T22:30:25.557Z,78.15
2019-05-05T22:32:52.657Z,75.84
2019-05-05T22:35:20.229Z,70.35
2019-05-05T22:37:47.367Z,74.68
2019-05-05T22:40:19.367Z,75.81
2019-05-05T22:42:46.828Z,74.83
2019-05-05T22:45:14.258Z,73.55
2019-05-05T22:47:41.571Z,73.25
2019-05-05T22:50:08.791Z,71.90
2019-05-05T22:52:36.391Z,69.84
2019-05-05T22:55:04.655Z,71.74
2019-05-05T22:57:34.289Z,74.76
2019-05-05T23:00:03.785Z,71.54
2019-05-05T23:02:34.107Z,72.18
2019-05-05T23:05:07.500Z,72.71
2019-05-05T23:07:35.077Z,73.17
2019-05-05T23:10:04.598Z,73.18
2019-05-05T23:12:31.899Z,74.82
2019-05-05T23:14:59.006Z,76.12
2019-05-05T23:17:46.084Z,72.98
2019-05-05T23:20:44.586Z,74.96
2019-05-05T23:23:20.886Z,75.52
2019-05-05T23:25:49.808Z,76.84
2019-05-05T23:28:16.972Z,77.75
2019-05-05T23:30:44.825Z,78.90
2019-05-05T23:33:13.892Z,75.44
2019-05-05T23:35:41.157Z,77.16
2019-05-05T23:38:08.279Z,77.57
2019-05-05T23:40:35.438Z,78.59
2019-05-05T23:43:04.521Z,77.05
2019-05-05T23:45:33.984Z,77.08
2019-05-05T23:48:00.964Z,77.84
2019-05-05T23:50:28.138Z,76.95
2019-05-05T23:52:55.244Z,78.84
2019-05-05T23:55:23.953Z,80.07
2019-05-05T23:57:51.684Z,79.90
